Airfield :
LOGIN :

Register | Disclaimer

   EN    FR    IT 

 










Legend :    VFR   Marginal VFR   IFR   Intensive IFR   Very Intensive IFR
Visi :
Ceiling :
>= 8 km
>= 3000ft
5 to 8 km
1000 to 3000 ft
1500m to 5 km
500 to 1000 ft
800 to 1500m
200 to 500 ft
< 800m
< 200 ft
Symbols :   Thunderstorms  Fog  Heavy snow  Heavy precipitations  Wind > 20 kt
SIGMETs :     Misc.  Thunderstorms  Icing  Turbulence  Mountain Waves  Volcanic Ashes






- Airport Elevation : 6 ft
- IATA code : PSA


LIRP - Galileo Galilei Pisa

CURRENT METAR :
  • 290815Z 10005KT 9999 -RA SCT040 BKN060 08/08 Q1012 NOSIG

EXPIRED METARs :
  • 290745Z 10004KT 9999 -RA SCT040 BKN060 08/08 Q1012 NOSIG
  • 290715Z VRB01KT 9999 -RA SCT030 BKN060 08/08 Q1012 NOSIG
  • 290645Z VRB01KT 9999 -RA SCT030 SCT060 08/08 Q1013 NOSIG
  • 290615Z 14008KT 9999 -RA BKN030 SCT060 08/08 Q1013 NOSIG
  • 290545Z 13008KT 9999 -RA BKN025 SCT040 09/07 Q1013 NOSIG

TAF TAF LIRP
Valid from the 29 at 06:00 until the 30 at 06:00 UTC


290500Z 2906/3006 12010KT 9999 BKN080
TEMPO 2906/2912 9999 RA BKN025 SCT080
BECMG 2920/2922 9999 FEW080



MET'MAP, your aeronautical weather chart ! - Copyright ORBIFLY December 2007 - Disclaimer

ORBIFLY MET'MAP TEAM :

Programming & Development : Alexandra Zaïnal
Original concept : Baudouin d'Aumeries
Technical & hardware support : Manuel Goepfert
Assistance : Marc-Olivier Méhu




SOURCES & CREDITS :

   NOAA